sensor_id;sensor_type;location;lat;lon;timestamp;temperature;humidity
1888;DHT22;944;51.574;6.980;2023-05-10T00:01:11;13.30;99.90
1888;DHT22;944;51.574;6.980;2023-05-10T00:03:38;13.20;99.90
1888;DHT22;944;51.574;6.980;2023-05-10T00:06:05;13.20;99.90
1888;DHT22;944;51.574;6.980;2023-05-10T00:08:32;13.30;99.90
1888;DHT22;944;51.574;6.980;2023-05-10T00:10:59;13.30;99.90
1888;DHT22;944;51.574;6.980;2023-05-10T00:13:27;13.30;99.90
1888;DHT22;944;51.574;6.980;2023-05-10T00:15:54;13.30;99.90
1888;DHT22;944;51.574;6.980;2023-05-10T00:18:22;13.30;99.90
1888;DHT22;944;51.574;6.980;2023-05-10T00:20:49;13.30;99.90
1888;DHT22;944;51.574;6.980;2023-05-10T00:23:22;13.10;99.90
1888;DHT22;944;51.574;6.980;2023-05-10T00:26:14;13.10;99.90
1888;DHT22;944;51.574;6.980;2023-05-10T00:28:42;13.30;99.90
1888;DHT22;944;51.574;6.980;2023-05-10T00:31:09;13.20;99.90
1888;DHT22;944;51.574;6.980;2023-05-10T00:33:38;13.20;99.90
1888;DHT22;944;51.574;6.980;2023-05-10T00:36:05;13.20;99.90
1888;DHT22;944;51.574;6.980;2023-05-10T00:38:33;13.10;99.90
1888;DHT22;944;51.574;6.980;2023-05-10T00:41:00;13.20;99.90
1888;DHT22;944;51.574;6.980;2023-05-10T00:43:28;13.20;99.90
1888;DHT22;944;51.574;6.980;2023-05-10T00:45:55;13.20;99.90
1888;DHT22;944;51.574;6.980;2023-05-10T00:48:22;13.10;99.90
1888;DHT22;944;51.574;6.980;2023-05-10T00:50:51;13.10;99.90
1888;DHT22;944;51.574;6.980;2023-05-10T00:53:18;13.00;99.90
1888;DHT22;944;51.574;6.980;2023-05-10T00:55:46;13.00;99.90
1888;DHT22;944;51.574;6.980;2023-05-10T00:58:13;12.90;99.90
1888;DHT22;944;51.574;6.980;2023-05-10T01:00:41;12.80;99.90
1888;DHT22;944;51.574;6.980;2023-05-10T01:03:10;12.80;99.90
1888;DHT22;944;51.574;6.980;2023-05-10T01:05:40;12.80;99.90
1888;DHT22;944;51.574;6.980;2023-05-10T01:08:08;12.70;99.90
1888;DHT22;944;51.574;6.980;2023-05-10T01:10:35;13.00;99.90
1888;DHT22;944;51.574;6.980;2023-05-10T01:13:03;12.80;99.90
1888;DHT22;944;51.574;6.980;2023-05-10T01:15:30;12.80;99.90
1888;DHT22;944;51.574;6.980;2023-05-10T01:17:58;12.80;99.90
1888;DHT22;944;51.574;6.980;2023-05-10T01:20:28;12.70;99.90
1888;DHT22;944;51.574;6.980;2023-05-10T01:23:24;12.70;99.90
1888;DHT22;944;51.574;6.980;2023-05-10T01:26:14;12.80;99.90
1888;DHT22;944;51.574;6.980;2023-05-10T01:29:19;12.80;99.90
1888;DHT22;944;51.574;6.980;2023-05-10T01:32:12;12.80;99.90
1888;DHT22;944;51.574;6.980;2023-05-10T01:34:51;12.80;99.90
1888;DHT22;944;51.574;6.980;2023-05-10T01:37:27;12.70;99.90
1888;DHT22;944;51.574;6.980;2023-05-10T01:40:02;12.70;99.90
1888;DHT22;944;51.574;6.980;2023-05-10T01:42:40;12.70;99.90
1888;DHT22;944;51.574;6.980;2023-05-10T01:45:20;12.70;99.90
1888;DHT22;944;51.574;6.980;2023-05-10T01:48:07;12.70;99.90
1888;DHT22;944;51.574;6.980;2023-05-10T01:50:38;12.70;99.90
1888;DHT22;944;51.574;6.980;2023-05-10T01:53:12;12.60;99.90
1888;DHT22;944;51.574;6.980;2023-05-10T01:55:45;12.60;99.90
1888;DHT22;944;51.574;6.980;2023-05-10T01:58:15;12.60;99.90
1888;DHT22;944;51.574;6.980;2023-05-10T02:00:46;12.60;99.90
1888;DHT22;944;51.574;6.980;2023-05-10T02:03:16;12.50;99.90
1888;DHT22;944;51.574;6.980;2023-05-10T02:05:46;12.50;99.90
1888;DHT22;944;51.574;6.980;2023-05-10T02:08:15;12.60;99.90
1888;DHT22;944;51.574;6.980;2023-05-10T02:10:45;12.50;99.90
1888;DHT22;944;51.574;6.980;2023-05-10T02:13:14;12.50;99.90
1888;DHT22;944;51.574;6.980;2023-05-10T02:15:43;12.60;99.90
1888;DHT22;944;51.574;6.980;2023-05-10T02:18:26;12.80;99.90
1888;DHT22;944;51.574;6.980;2023-05-10T02:21:02;12.70;99.90
1888;DHT22;944;51.574;6.980;2023-05-10T02:23:37;12.60;99.90
1888;DHT22;944;51.574;6.980;2023-05-10T02:26:17;12.60;99.90
1888;DHT22;944;51.574;6.980;2023-05-10T02:29:02;12.60;99.90
1888;DHT22;944;51.574;6.980;2023-05-10T02:31:49;12.60;99.90
1888;DHT22;944;51.574;6.980;2023-05-10T02:34:39;12.60;99.90
1888;DHT22;944;51.574;6.980;2023-05-10T02:37:27;12.70;99.90
1888;DHT22;944;51.574;6.980;2023-05-10T02:40:06;12.80;99.90
1888;DHT22;944;51.574;6.980;2023-05-10T02:42:43;12.70;99.90
1888;DHT22;944;51.574;6.980;2023-05-10T02:45:21;12.80;99.90
1888;DHT22;944;51.574;6.980;2023-05-10T02:48:09;12.70;99.90
1888;DHT22;944;51.574;6.980;2023-05-10T02:50:44;12.40;99.90
1888;DHT22;944;51.574;6.980;2023-05-10T02:53:15;12.60;99.90
1888;DHT22;944;51.574;6.980;2023-05-10T02:55:49;12.50;99.90
1888;DHT22;944;51.574;6.980;2023-05-10T02:58:18;12.40;99.90
1888;DHT22;944;51.574;6.980;2023-05-10T03:00:46;12.40;99.90
1888;DHT22;944;51.574;6.980;2023-05-10T03:03:13;12.40;99.90
1888;DHT22;944;51.574;6.980;2023-05-10T03:05:42;12.40;99.90
1888;DHT22;944;51.574;6.980;2023-05-10T03:08:09;12.40;99.90
1888;DHT22;944;51.574;6.980;2023-05-10T03:10:44;12.50;99.90
1888;DHT22;944;51.574;6.980;2023-05-10T03:13:26;12.60;99.90
1888;DHT22;944;51.574;6.980;2023-05-10T03:15:59;12.60;99.90
1888;DHT22;944;51.574;6.980;2023-05-10T03:18:37;12.60;99.90
1888;DHT22;944;51.574;6.980;2023-05-10T03:21:16;12.60;99.90
1888;DHT22;944;51.574;6.980;2023-05-10T03:23:48;12.70;99.90
1888;DHT22;944;51.574;6.980;2023-05-10T03:26:21;12.70;99.90
1888;DHT22;944;51.574;6.980;2023-05-10T03:28:52;12.70;99.90
1888;DHT22;944;51.574;6.980;2023-05-10T03:31:20;12.70;99.90
1888;DHT22;944;51.574;6.980;2023-05-10T03:33:48;12.70;99.90
1888;DHT22;944;51.574;6.980;2023-05-10T03:36:17;12.70;99.90
1888;DHT22;944;51.574;6.980;2023-05-10T03:38:49;12.70;99.90
1888;DHT22;944;51.574;6.980;2023-05-10T03:41:18;12.80;99.90
1888;DHT22;944;51.574;6.980;2023-05-10T03:43:45;12.80;99.90
1888;DHT22;944;51.574;6.980;2023-05-10T03:46:12;12.70;99.90
1888;DHT22;944;51.574;6.980;2023-05-10T03:48:40;12.60;99.90
1888;DHT22;944;51.574;6.980;2023-05-10T03:51:07;12.80;99.90
1888;DHT22;944;51.574;6.980;2023-05-10T03:53:35;12.70;99.90
1888;DHT22;944;51.574;6.980;2023-05-10T03:56:02;12.80;99.90
1888;DHT22;944;51.574;6.980;2023-05-10T03:58:30;12.80;99.90
1888;DHT22;944;51.574;6.980;2023-05-10T04:00:58;13.00;99.90
1888;DHT22;944;51.574;6.980;2023-05-10T04:03:25;12.80;99.90
1888;DHT22;944;51.574;6.980;2023-05-10T04:05:59;12.80;99.90
1888;DHT22;944;51.574;6.980;2023-05-10T04:08:26;12.80;99.90
1888;DHT22;944;51.574;6.980;2023-05-10T04:10:54;12.90;99.90
1888;DHT22;944;51.574;6.980;2023-05-10T04:13:34;13.00;99.90
1888;DHT22;944;51.574;6.980;2023-05-10T04:16:01;12.90;99.90
1888;DHT22;944;51.574;6.980;2023-05-10T04:18:28;13.00;99.90
1888;DHT22;944;51.574;6.980;2023-05-10T04:20:56;13.00;99.90
1888;DHT22;944;51.574;6.980;2023-05-10T04:23:23;13.00;99.90
1888;DHT22;944;51.574;6.980;2023-05-10T04:25:50;13.10;99.90
1888;DHT22;944;51.574;6.980;2023-05-10T04:28:19;13.10;99.90
1888;DHT22;944;51.574;6.980;2023-05-10T04:30:47;13.10;99.90
1888;DHT22;944;51.574;6.980;2023-05-10T04:33:14;13.10;99.90
1888;DHT22;944;51.574;6.980;2023-05-10T04:35:41;13.10;99.90
1888;DHT22;944;51.574;6.980;2023-05-10T04:38:11;13.00;99.90
1888;DHT22;944;51.574;6.980;2023-05-10T04:40:39;13.00;99.90
1888;DHT22;944;51.574;6.980;2023-05-10T04:43:13;13.00;99.90
1888;DHT22;944;51.574;6.980;2023-05-10T04:45:46;13.10;99.90
1888;DHT22;944;51.574;6.980;2023-05-10T04:48:17;13.00;99.90
1888;DHT22;944;51.574;6.980;2023-05-10T04:50:52;13.00;99.90
1888;DHT22;944;51.574;6.980;2023-05-10T04:53:23;13.10;99.90
1888;DHT22;944;51.574;6.980;2023-05-10T04:55:50;13.10;99.90
1888;DHT22;944;51.574;6.980;2023-05-10T04:58:18;13.10;99.90
1888;DHT22;944;51.574;6.980;2023-05-10T05:00:46;13.10;99.90
1888;DHT22;944;51.574;6.980;2023-05-10T05:03:13;13.10;99.90
1888;DHT22;944;51.574;6.980;2023-05-10T05:05:40;13.20;99.90
1888;DHT22;944;51.574;6.980;2023-05-10T05:08:07;13.00;99.90
1888;DHT22;944;51.574;6.980;2023-05-10T05:10:35;13.10;99.90
1888;DHT22;944;51.574;6.980;2023-05-10T05:13:02;13.10;99.90
1888;DHT22;944;51.574;6.980;2023-05-10T05:19:14;13.10;99.90
1888;DHT22;944;51.574;6.980;2023-05-10T05:29:21;13.10;99.90
1888;DHT22;944;51.574;6.980;2023-05-10T05:32:38;13.10;99.90
1888;DHT22;944;51.574;6.980;2023-05-10T05:35:31;13.20;99.90
1888;DHT22;944;51.574;6.980;2023-05-10T05:38:29;13.20;99.90
1888;DHT22;944;51.574;6.980;2023-05-10T05:48:51;13.40;99.90
1888;DHT22;944;51.574;6.980;2023-05-10T06:54:30;14.50;99.90
1888;DHT22;944;51.574;6.980;2023-05-10T07:01:17;14.50;99.90
1888;DHT22;944;51.574;6.980;2023-05-10T09:54:37;17.90;99.90
1888;DHT22;944;51.574;6.980;2023-05-10T11:57:54;16.80;1.00
1888;DHT22;944;51.574;6.980;2023-05-10T12:01:35;16.30;99.90
1888;DHT22;944;51.574;6.980;2023-05-10T12:23:32;17.30;99.90
1888;DHT22;944;51.574;6.980;2023-05-10T12:25:50;17.40;99.90
1888;DHT22;944;51.574;6.980;2023-05-10T12:28:20;17.40;99.90
1888;DHT22;944;51.574;6.980;2023-05-10T12:31:16;17.30;99.90
1888;DHT22;944;51.574;6.980;2023-05-10T12:33:51;17.50;1.00
1888;DHT22;944;51.574;6.980;2023-05-10T12:36:23;17.70;1.00
1888;DHT22;944;51.574;6.980;2023-05-10T12:46:16;18.10;46.50
1888;DHT22;944;51.574;6.980;2023-05-10T12:48:45;17.80;71.90
1888;DHT22;944;51.574;6.980;2023-05-10T12:54:57;18.10;84.00
1888;DHT22;944;51.574;6.980;2023-05-10T12:57:25;18.20;95.30
1888;DHT22;944;51.574;6.980;2023-05-10T12:59:52;18.40;99.90
1888;DHT22;944;51.574;6.980;2023-05-10T13:02:19;18.60;99.90
1888;DHT22;944;51.574;6.980;2023-05-10T13:04:46;18.60;99.90
1888;DHT22;944;51.574;6.980;2023-05-10T13:07:13;18.80;99.90
1888;DHT22;944;51.574;6.980;2023-05-10T13:09:40;18.80;99.90
1888;DHT22;944;51.574;6.980;2023-05-10T13:12:09;18.90;99.90
1888;DHT22;944;51.574;6.980;2023-05-10T13:14:36;18.90;99.90
1888;DHT22;944;51.574;6.980;2023-05-10T13:17:06;19.00;99.90
1888;DHT22;944;51.574;6.980;2023-05-10T13:20:15;19.00;99.90
1888;DHT22;944;51.574;6.980;2023-05-10T13:30:53;18.60;97.30
1888;DHT22;944;51.574;6.980;2023-05-10T13:33:42;18.40;99.90
1888;DHT22;944;51.574;6.980;2023-05-10T13:36:44;18.50;99.90
1888;DHT22;944;51.574;6.980;2023-05-10T13:39:14;18.20;99.90
1888;DHT22;944;51.574;6.980;2023-05-10T14:44:41;18.30;96.90
1888;DHT22;944;51.574;6.980;2023-05-10T14:47:29;18.20;99.90
1888;DHT22;944;51.574;6.980;2023-05-10T14:50:08;18.20;99.90
1888;DHT22;944;51.574;6.980;2023-05-10T14:52:36;18.40;99.90
1888;DHT22;944;51.574;6.980;2023-05-10T14:55:05;18.50;99.90
1888;DHT22;944;51.574;6.980;2023-05-10T14:57:36;18.70;99.90
1888;DHT22;944;51.574;6.980;2023-05-10T15:00:16;18.90;99.90
1888;DHT22;944;51.574;6.980;2023-05-10T15:02:45;19.00;99.90
1888;DHT22;944;51.574;6.980;2023-05-10T15:08:55;18.70;99.90
1888;DHT22;944;51.574;6.980;2023-05-10T15:11:26;18.60;99.90
1888;DHT22;944;51.574;6.980;2023-05-10T15:14:03;18.60;99.90
1888;DHT22;944;51.574;6.980;2023-05-10T15:16:42;18.60;99.90
1888;DHT22;944;51.574;6.980;2023-05-10T15:19:11;18.60;99.90
1888;DHT22;944;51.574;6.980;2023-05-10T15:21:38;18.60;99.90
1888;DHT22;944;51.574;6.980;2023-05-10T15:24:08;18.70;99.90
1888;DHT22;944;51.574;6.980;2023-05-10T15:26:37;18.90;99.90
1888;DHT22;944;51.574;6.980;2023-05-10T15:29:07;19.00;99.90
1888;DHT22;944;51.574;6.980;2023-05-10T15:31:35;18.90;99.90
1888;DHT22;944;51.574;6.980;2023-05-10T15:34:02;18.80;99.90
1888;DHT22;944;51.574;6.980;2023-05-10T15:36:31;18.70;99.90
1888;DHT22;944;51.574;6.980;2023-05-10T15:39:04;18.50;99.90
1888;DHT22;944;51.574;6.980;2023-05-10T15:41:42;18.50;99.90
1888;DHT22;944;51.574;6.980;2023-05-10T15:44:11;18.40;99.90
1888;DHT22;944;51.574;6.980;2023-05-10T15:46:46;18.20;99.90
1888;DHT22;944;51.574;6.980;2023-05-10T15:49:13;18.00;99.90
1888;DHT22;944;51.574;6.980;2023-05-10T15:51:40;18.00;99.90
1888;DHT22;944;51.574;6.980;2023-05-10T15:54:07;17.90;99.90
1888;DHT22;944;51.574;6.980;2023-05-10T15:56:35;18.00;99.90
1888;DHT22;944;51.574;6.980;2023-05-10T16:02:45;17.90;99.90
1888;DHT22;944;51.574;6.980;2023-05-10T16:05:14;17.90;99.90
1888;DHT22;944;51.574;6.980;2023-05-10T16:07:42;17.90;99.90
1888;DHT22;944;51.574;6.980;2023-05-10T16:10:21;17.90;99.90
1888;DHT22;944;51.574;6.980;2023-05-10T16:12:50;17.70;99.90
1888;DHT22;944;51.574;6.980;2023-05-10T16:15:17;17.60;99.90
1888;DHT22;944;51.574;6.980;2023-05-10T16:17:47;17.60;99.90
1888;DHT22;944;51.574;6.980;2023-05-10T16:20:16;17.50;99.90
1888;DHT22;944;51.574;6.980;2023-05-10T16:22:45;17.50;99.90
1888;DHT22;944;51.574;6.980;2023-05-10T16:25:35;17.50;99.90
1888;DHT22;944;51.574;6.980;2023-05-10T16:28:09;17.50;99.90
1888;DHT22;944;51.574;6.980;2023-05-10T16:30:38;17.40;99.90
1888;DHT22;944;51.574;6.980;2023-05-10T16:33:06;17.40;99.90
1888;DHT22;944;51.574;6.980;2023-05-10T16:35:33;17.30;99.90
1888;DHT22;944;51.574;6.980;2023-05-10T16:38:00;17.30;99.90
1888;DHT22;944;51.574;6.980;2023-05-10T16:40:31;17.20;99.90
1888;DHT22;944;51.574;6.980;2023-05-10T16:42:58;17.10;99.90
1888;DHT22;944;51.574;6.980;2023-05-10T16:45:27;16.90;99.90
1888;DHT22;944;51.574;6.980;2023-05-10T16:47:58;16.80;99.90
1888;DHT22;944;51.574;6.980;2023-05-10T16:50:29;16.70;99.90
1888;DHT22;944;51.574;6.980;2023-05-10T16:52:56;16.50;99.90
1888;DHT22;944;51.574;6.980;2023-05-10T16:55:23;16.30;99.90
1888;DHT22;944;51.574;6.980;2023-05-10T16:57:51;16.20;99.90
1888;DHT22;944;51.574;6.980;2023-05-10T17:00:23;16.20;99.90
1888;DHT22;944;51.574;6.980;2023-05-10T17:02:50;16.10;99.90
1888;DHT22;944;51.574;6.980;2023-05-10T17:05:19;16.10;99.90
1888;DHT22;944;51.574;6.980;2023-05-10T17:07:47;15.90;99.90
1888;DHT22;944;51.574;6.980;2023-05-10T17:10:15;15.90;99.90
1888;DHT22;944;51.574;6.980;2023-05-10T17:12:42;15.80;99.90
1888;DHT22;944;51.574;6.980;2023-05-10T17:19:09;15.30;99.90
1888;DHT22;944;51.574;6.980;2023-05-10T17:21:35;15.10;99.90
1888;DHT22;944;51.574;6.980;2023-05-10T17:24:04;15.10;99.90
1888;DHT22;944;51.574;6.980;2023-05-10T17:26:31;15.10;99.90
1888;DHT22;944;51.574;6.980;2023-05-10T17:28:59;15.20;99.90
1888;DHT22;944;51.574;6.980;2023-05-10T17:31:26;15.20;99.90
1888;DHT22;944;51.574;6.980;2023-05-10T17:33:53;15.40;99.90
1888;DHT22;944;51.574;6.980;2023-05-10T17:36:20;15.30;99.90
1888;DHT22;944;51.574;6.980;2023-05-10T17:38:47;15.00;99.90
1888;DHT22;944;51.574;6.980;2023-05-10T17:41:15;15.20;99.90
1888;DHT22;944;51.574;6.980;2023-05-10T17:43:43;15.10;99.90
1888;DHT22;944;51.574;6.980;2023-05-10T17:46:10;15.10;99.90
1888;DHT22;944;51.574;6.980;2023-05-10T17:48:37;15.00;99.90
1888;DHT22;944;51.574;6.980;2023-05-10T17:51:04;15.00;99.90
1888;DHT22;944;51.574;6.980;2023-05-10T17:53:32;15.10;99.90
1888;DHT22;944;51.574;6.980;2023-05-10T17:55:59;14.90;99.90
1888;DHT22;944;51.574;6.980;2023-05-10T17:58:28;15.10;99.90
1888;DHT22;944;51.574;6.980;2023-05-10T18:00:55;15.00;99.90
1888;DHT22;944;51.574;6.980;2023-05-10T18:03:22;15.00;99.90
1888;DHT22;944;51.574;6.980;2023-05-10T18:05:49;15.20;99.90
1888;DHT22;944;51.574;6.980;2023-05-10T18:08:16;15.00;99.90
1888;DHT22;944;51.574;6.980;2023-05-10T18:10:47;15.20;99.90
1888;DHT22;944;51.574;6.980;2023-05-10T18:13:14;15.10;99.90
1888;DHT22;944;51.574;6.980;2023-05-10T18:15:42;15.20;99.90
1888;DHT22;944;51.574;6.980;2023-05-10T18:18:09;15.10;99.90
1888;DHT22;944;51.574;6.980;2023-05-10T18:20:36;15.00;99.90
1888;DHT22;944;51.574;6.980;2023-05-10T18:23:03;15.20;99.90
1888;DHT22;944;51.574;6.980;2023-05-10T18:25:30;15.10;99.90
1888;DHT22;944;51.574;6.980;2023-05-10T18:27:58;15.10;99.90
1888;DHT22;944;51.574;6.980;2023-05-10T18:30:24;15.10;99.90
1888;DHT22;944;51.574;6.980;2023-05-10T18:36:34;15.10;99.90
1888;DHT22;944;51.574;6.980;2023-05-10T18:39:08;15.00;99.90
1888;DHT22;944;51.574;6.980;2023-05-10T18:41:37;15.00;99.90
1888;DHT22;944;51.574;6.980;2023-05-10T18:44:04;15.00;99.90
1888;DHT22;944;51.574;6.980;2023-05-10T18:50:15;15.00;99.90
1888;DHT22;944;51.574;6.980;2023-05-10T18:52:47;15.10;99.90
1888;DHT22;944;51.574;6.980;2023-05-10T18:55:15;15.00;99.90
1888;DHT22;944;51.574;6.980;2023-05-10T18:57:43;15.10;99.90
1888;DHT22;944;51.574;6.980;2023-05-10T19:00:11;15.10;99.90
1888;DHT22;944;51.574;6.980;2023-05-10T19:02:39;15.10;99.90
1888;DHT22;944;51.574;6.980;2023-05-10T19:05:07;15.10;99.90
1888;DHT22;944;51.574;6.980;2023-05-10T19:07:34;15.00;99.90
1888;DHT22;944;51.574;6.980;2023-05-10T19:10:03;14.90;99.90
1888;DHT22;944;51.574;6.980;2023-05-10T19:12:30;15.00;99.90
1888;DHT22;944;51.574;6.980;2023-05-10T19:14:57;15.00;99.90
1888;DHT22;944;51.574;6.980;2023-05-10T19:17:24;14.90;99.90
1888;DHT22;944;51.574;6.980;2023-05-10T19:19:54;14.80;99.90
1888;DHT22;944;51.574;6.980;2023-05-10T19:22:21;14.80;99.90
1888;DHT22;944;51.574;6.980;2023-05-10T19:24:48;14.50;99.90
1888;DHT22;944;51.574;6.980;2023-05-10T19:27:16;14.70;99.90
1888;DHT22;944;51.574;6.980;2023-05-10T19:29:43;14.60;99.90
1888;DHT22;944;51.574;6.980;2023-05-10T19:32:10;14.60;99.90
1888;DHT22;944;51.574;6.980;2023-05-10T19:34:38;14.60;99.90
1888;DHT22;944;51.574;6.980;2023-05-10T19:37:05;14.50;99.90
1888;DHT22;944;51.574;6.980;2023-05-10T19:42:38;14.60;99.90
1888;DHT22;944;51.574;6.980;2023-05-10T19:45:07;14.70;99.90
1888;DHT22;944;51.574;6.980;2023-05-10T19:47:34;14.60;99.90
1888;DHT22;944;51.574;6.980;2023-05-10T19:50:12;14.60;99.90
1888;DHT22;944;51.574;6.980;2023-05-10T19:56:30;14.50;99.90
1888;DHT22;944;51.574;6.980;2023-05-10T19:58:58;14.50;99.90
1888;DHT22;944;51.574;6.980;2023-05-10T20:01:27;14.40;99.90
1888;DHT22;944;51.574;6.980;2023-05-10T20:03:54;14.50;99.90
1888;DHT22;944;51.574;6.980;2023-05-10T20:09:30;14.40;99.90
1888;DHT22;944;51.574;6.980;2023-05-10T20:11:57;14.30;99.90
1888;DHT22;944;51.574;6.980;2023-05-10T20:14:26;14.30;99.90
1888;DHT22;944;51.574;6.980;2023-05-10T20:16:53;14.30;99.90
1888;DHT22;944;51.574;6.980;2023-05-10T20:19:20;14.30;99.90
1888;DHT22;944;51.574;6.980;2023-05-10T20:21:47;14.20;99.90
1888;DHT22;944;51.574;6.980;2023-05-10T20:26:45;14.10;99.90
1888;DHT22;944;51.574;6.980;2023-05-10T20:34:25;14.00;99.90
1888;DHT22;944;51.574;6.980;2023-05-10T20:36:52;14.00;99.90
1888;DHT22;944;51.574;6.980;2023-05-10T20:39:18;13.90;99.90
1888;DHT22;944;51.574;6.980;2023-05-10T20:41:45;13.90;99.90
1888;DHT22;944;51.574;6.980;2023-05-10T20:44:14;13.90;99.90
1888;DHT22;944;51.574;6.980;2023-05-10T20:49:19;13.90;99.90
1888;DHT22;944;51.574;6.980;2023-05-10T20:51:51;13.90;99.90
1888;DHT22;944;51.574;6.980;2023-05-10T20:54:18;14.00;99.90
1888;DHT22;944;51.574;6.980;2023-05-10T20:57:02;13.90;99.90
1888;DHT22;944;51.574;6.980;2023-05-10T20:59:29;13.90;99.90
1888;DHT22;944;51.574;6.980;2023-05-10T21:01:56;13.80;99.90
1888;DHT22;944;51.574;6.980;2023-05-10T21:04:23;13.80;99.90
1888;DHT22;944;51.574;6.980;2023-05-10T21:06:52;13.90;99.90
1888;DHT22;944;51.574;6.980;2023-05-10T21:09:20;13.80;99.90
1888;DHT22;944;51.574;6.980;2023-05-10T21:11:47;13.80;99.90
1888;DHT22;944;51.574;6.980;2023-05-10T21:14:14;13.60;99.90
1888;DHT22;944;51.574;6.980;2023-05-10T21:16:41;13.70;99.90
1888;DHT22;944;51.574;6.980;2023-05-10T21:19:08;13.70;99.90
1888;DHT22;944;51.574;6.980;2023-05-10T21:21:35;13.70;99.90
1888;DHT22;944;51.574;6.980;2023-05-10T21:24:04;13.90;99.90
1888;DHT22;944;51.574;6.980;2023-05-10T21:26:31;13.80;99.90
1888;DHT22;944;51.574;6.980;2023-05-10T21:28:58;13.80;99.90
1888;DHT22;944;51.574;6.980;2023-05-10T21:31:25;13.90;99.90
1888;DHT22;944;51.574;6.980;2023-05-10T21:33:52;14.00;99.90
1888;DHT22;944;51.574;6.980;2023-05-10T21:36:19;14.00;99.90
1888;DHT22;944;51.574;6.980;2023-05-10T21:38:46;14.00;99.90
1888;DHT22;944;51.574;6.980;2023-05-10T21:41:16;14.00;99.90
1888;DHT22;944;51.574;6.980;2023-05-10T21:43:43;13.90;99.90
1888;DHT22;944;51.574;6.980;2023-05-10T21:46:10;13.80;99.90
1888;DHT22;944;51.574;6.980;2023-05-10T21:48:38;13.80;99.90
1888;DHT22;944;51.574;6.980;2023-05-10T21:51:05;13.80;99.90
1888;DHT22;944;51.574;6.980;2023-05-10T21:53:32;13.90;99.90
1888;DHT22;944;51.574;6.980;2023-05-10T21:56:01;13.70;99.90
1888;DHT22;944;51.574;6.980;2023-05-10T21:58:29;13.70;99.90
1888;DHT22;944;51.574;6.980;2023-05-10T22:00:56;13.70;99.90
1888;DHT22;944;51.574;6.980;2023-05-10T22:03:23;13.70;99.90
1888;DHT22;944;51.574;6.980;2023-05-10T22:05:50;13.60;99.90
1888;DHT22;944;51.574;6.980;2023-05-10T22:08:17;13.60;99.90
1888;DHT22;944;51.574;6.980;2023-05-10T22:10:44;13.60;99.90
1888;DHT22;944;51.574;6.980;2023-05-10T22:13:11;13.70;99.90
1888;DHT22;944;51.574;6.980;2023-05-10T22:15:39;13.80;99.90
1888;DHT22;944;51.574;6.980;2023-05-10T22:18:06;13.80;99.90
1888;DHT22;944;51.574;6.980;2023-05-10T22:20:33;13.80;99.90
1888;DHT22;944;51.574;6.980;2023-05-10T22:23:00;13.80;99.90
1888;DHT22;944;51.574;6.980;2023-05-10T22:25:27;13.80;99.90
1888;DHT22;944;51.574;6.980;2023-05-10T22:27:55;13.70;99.90
1888;DHT22;944;51.574;6.980;2023-05-10T22:30:22;13.70;99.90
1888;DHT22;944;51.574;6.980;2023-05-10T22:32:50;13.70;99.90
1888;DHT22;944;51.574;6.980;2023-05-10T22:35:18;13.90;99.90
1888;DHT22;944;51.574;6.980;2023-05-10T22:37:45;13.70;99.90
1888;DHT22;944;51.574;6.980;2023-05-10T22:40:12;13.70;99.90
1888;DHT22;944;51.574;6.980;2023-05-10T22:42:39;13.80;99.90
1888;DHT22;944;51.574;6.980;2023-05-10T22:45:07;13.80;99.90
1888;DHT22;944;51.574;6.980;2023-05-10T22:47:34;13.80;99.90
1888;DHT22;944;51.574;6.980;2023-05-10T22:50:04;13.90;99.90
1888;DHT22;944;51.574;6.980;2023-05-10T22:52:33;13.90;99.90
1888;DHT22;944;51.574;6.980;2023-05-10T22:55:03;14.00;99.90
1888;DHT22;944;51.574;6.980;2023-05-10T22:57:31;13.90;99.90
1888;DHT22;944;51.574;6.980;2023-05-10T22:59:59;13.90;99.90
1888;DHT22;944;51.574;6.980;2023-05-10T23:02:26;13.90;99.90
1888;DHT22;944;51.574;6.980;2023-05-10T23:04:52;13.80;99.90
